createdAt,value
2022-09-01T00:01:24.478Z,20.70
2022-09-01T00:04:47.837Z,20.50
2022-09-01T00:08:10.401Z,20.60
2022-09-01T00:11:33.934Z,20.60
2022-09-01T00:14:56.497Z,20.50
2022-09-01T00:18:19.172Z,20.50
2022-09-01T00:21:43.990Z,20.50
2022-09-01T00:25:08.181Z,20.50
2022-09-01T00:28:33.039Z,20.50
2022-09-01T00:31:55.922Z,20.40
2022-09-01T00:35:19.660Z,20.40
2022-09-01T00:38:45.135Z,20.40
2022-09-01T00:42:07.539Z,20.40
2022-09-01T00:45:30.884Z,20.40
2022-09-01T00:49:21.778Z,20.40
2022-09-01T00:52:51.779Z,20.40
2022-09-01T00:56:14.645Z,20.30
2022-09-01T00:59:43.914Z,20.20
2022-09-01T01:03:10.008Z,20.20
2022-09-01T01:06:35.922Z,20.20
2022-09-01T01:09:58.347Z,20.20
2022-09-01T01:13:21.157Z,20.10
2022-09-01T01:16:45.639Z,20.10
2022-09-01T01:20:28.316Z,20.10
2022-09-01T01:24:02.519Z,20.00
2022-09-01T01:27:25.696Z,20.00
2022-09-01T01:30:56.882Z,20.00
2022-09-01T01:34:20.325Z,20.00
2022-09-01T01:37:49.201Z,20.00
2022-09-01T01:41:19.956Z,20.00
2022-09-01T01:44:42.758Z,20.10
2022-09-01T01:48:09.238Z,20.10
2022-09-01T01:52:08.099Z,20.20
2022-09-01T01:55:33.979Z,20.20
2022-09-01T01:58:57.883Z,20.20
2022-09-01T02:02:21.723Z,20.20
2022-09-01T02:05:44.460Z,20.30
2022-09-01T02:09:07.280Z,20.30
2022-09-01T02:12:31.598Z,20.40
2022-09-01T02:15:56.879Z,20.40
2022-09-01T02:19:21.314Z,20.50
2022-09-01T02:22:44.770Z,20.50
2022-09-01T02:26:18.518Z,20.50
2022-09-01T02:29:44.100Z,20.60
2022-09-01T02:33:07.021Z,20.70
2022-09-01T02:36:35.634Z,20.70
2022-09-01T02:39:58.269Z,20.70
2022-09-01T02:43:22.039Z,20.70
2022-09-01T02:46:46.068Z,20.80
2022-09-01T02:50:14.145Z,20.80
2022-09-01T02:53:39.707Z,20.80
2022-09-01T02:57:02.225Z,20.90
2022-09-01T03:00:31.606Z,20.80
2022-09-01T03:03:57.327Z,20.80
2022-09-01T03:07:22.491Z,20.80
2022-09-01T03:10:46.786Z,20.90
2022-09-01T03:14:09.519Z,20.80
2022-09-01T03:17:32.038Z,21.00
2022-09-01T03:20:55.275Z,20.90
2022-09-01T03:24:18.734Z,20.90
2022-09-01T03:27:42.132Z,20.90
2022-09-01T03:31:05.301Z,20.90
2022-09-01T03:34:28.767Z,20.90
2022-09-01T03:37:52.814Z,20.80
2022-09-01T03:41:18.338Z,20.80
2022-09-01T03:44:44.515Z,20.80
2022-09-01T03:48:11.058Z,20.80
2022-09-01T03:51:33.864Z,20.50
2022-09-01T03:54:59.668Z,20.30
2022-09-01T03:58:22.680Z,20.20
2022-09-01T04:01:49.843Z,20.00
2022-09-01T04:05:12.201Z,20.00
2022-09-01T04:08:35.107Z,20.10
2022-09-01T04:11:57.199Z,19.90
2022-09-01T04:15:19.658Z,19.90
2022-09-01T04:18:42.448Z,20.00
2022-09-01T04:22:05.709Z,20.00
2022-09-01T04:25:34.546Z,19.90
2022-09-01T04:28:57.340Z,19.80
2022-09-01T04:32:22.103Z,19.70
2022-09-01T04:35:49.777Z,19.70
2022-09-01T04:39:13.468Z,19.80
2022-09-01T04:42:37.111Z,19.70
2022-09-01T04:45:59.768Z,19.70
2022-09-01T04:49:23.735Z,19.60
2022-09-01T04:52:48.004Z,19.50
2022-09-01T04:56:25.590Z,19.40
2022-09-01T05:00:26.024Z,19.40
2022-09-01T05:03:56.527Z,19.40
2022-09-01T05:08:00.489Z,19.50
2022-09-01T05:11:31.578Z,19.50
2022-09-01T05:15:06.399Z,19.50
2022-09-01T05:18:29.090Z,19.40
2022-09-01T05:21:58.334Z,19.40
2022-09-01T05:25:30.789Z,19.40
2022-09-01T05:29:10.690Z,19.50
2022-09-01T05:32:33.648Z,19.60
2022-09-01T05:35:59.894Z,19.50
2022-09-01T05:39:22.668Z,19.50
2022-09-01T05:42:45.024Z,19.50
2022-09-01T05:46:08.643Z,19.60
2022-09-01T05:49:33.212Z,19.60
2022-09-01T05:52:58.389Z,19.70
2022-09-01T05:56:20.979Z,19.90
2022-09-01T05:59:43.387Z,19.90
2022-09-01T06:03:11.475Z,19.90
2022-09-01T06:10:35.730Z,19.90
2022-09-01T06:13:58.834Z,19.90
2022-09-01T06:17:25.328Z,19.90
2022-09-01T06:20:49.568Z,20.00
2022-09-01T06:24:13.275Z,20.00
2022-09-01T06:27:41.030Z,20.00
2022-09-01T06:31:10.808Z,20.10
2022-09-01T06:34:36.422Z,20.30
2022-09-01T06:37:58.827Z,20.30
2022-09-01T06:41:31.736Z,20.40
2022-09-01T06:44:55.016Z,20.40
2022-09-01T06:48:17.894Z,20.60
2022-09-01T06:51:40.454Z,20.70
2022-09-01T06:55:07.105Z,20.90
2022-09-01T06:58:33.348Z,21.00
2022-09-01T07:02:04.817Z,21.10
2022-09-01T07:06:06.958Z,21.30
2022-09-01T07:10:06.076Z,21.40
2022-09-01T07:14:15.246Z,21.50
2022-09-01T07:17:25.429Z,21.50
2022-09-01T07:24:33.245Z,21.70
2022-09-01T07:28:25.345Z,21.80
2022-09-01T07:31:49.421Z,22.10
2022-09-01T07:35:13.040Z,21.90
2022-09-01T07:39:49.028Z,22.00
2022-09-01T07:46:37.374Z,22.20
2022-09-01T07:50:37.446Z,22.40
2022-09-01T07:53:50.708Z,22.30
2022-09-01T07:57:15.384Z,22.50
2022-09-01T08:00:40.443Z,22.70
2022-09-01T08:04:04.665Z,22.80
2022-09-01T08:07:26.700Z,22.90
2022-09-01T08:10:49.584Z,23.30
2022-09-01T08:14:12.191Z,23.60
2022-09-01T08:17:50.225Z,23.40
2022-09-01T08:21:13.638Z,23.50
2022-09-01T08:25:01.878Z,23.60
2022-09-01T08:28:27.480Z,23.90
2022-09-01T08:31:51.620Z,24.00
2022-09-01T08:35:16.249Z,24.20
2022-09-01T08:38:39.992Z,24.20
2022-09-01T08:42:19.840Z,24.20
2022-09-01T08:45:56.360Z,23.80
2022-09-01T08:49:26.229Z,23.90
2022-09-01T08:53:17.867Z,24.20
2022-09-01T08:56:41.083Z,24.30
2022-09-01T09:00:09.955Z,24.60
2022-09-01T09:04:03.063Z,24.70
2022-09-01T09:07:33.816Z,24.80
2022-09-01T09:11:01.774Z,25.10
2022-09-01T09:14:45.729Z,25.70
2022-09-01T09:18:39.076Z,25.90
2022-09-01T09:22:06.307Z,25.90
2022-09-01T09:25:31.257Z,25.90
2022-09-01T09:28:55.174Z,26.80
2022-09-01T09:32:35.488Z,27.70
2022-09-01T09:36:19.181Z,27.50
2022-09-01T09:39:41.194Z,27.00
2022-09-01T09:43:06.531Z,26.40
2022-09-01T09:46:41.291Z,26.40
2022-09-01T09:50:21.357Z,26.80
2022-09-01T09:53:43.456Z,26.80
2022-09-01T09:57:08.510Z,26.80
2022-09-01T10:00:34.595Z,26.30
2022-09-01T10:03:59.402Z,26.70
2022-09-01T10:07:37.408Z,28.30
2022-09-01T10:10:59.401Z,28.90
2022-09-01T10:14:54.173Z,29.70
2022-09-01T10:18:20.918Z,29.60
2022-09-01T10:21:45.710Z,28.00
2022-09-01T10:25:11.148Z,27.80
2022-09-01T10:28:34.329Z,28.00
2022-09-01T10:32:28.098Z,28.50
2022-09-01T10:35:45.353Z,29.00
2022-09-01T10:39:12.181Z,29.80
2022-09-01T10:42:35.045Z,29.70
2022-09-01T10:46:03.727Z,29.60
2022-09-01T10:49:30.792Z,31.30
2022-09-01T10:52:55.855Z,32.10
2022-09-01T10:56:35.392Z,31.90
2022-09-01T11:00:37.025Z,31.60
2022-09-01T11:04:00.749Z,30.90
2022-09-01T11:07:44.233Z,30.30
2022-09-01T11:11:16.038Z,29.90
2022-09-01T11:14:55.998Z,29.70
2022-09-01T11:18:27.698Z,30.20
2022-09-01T11:22:13.105Z,30.50
2022-09-01T11:25:44.170Z,31.20
2022-09-01T11:29:09.028Z,31.40
2022-09-01T11:32:36.940Z,31.10
2022-09-01T11:36:25.554Z,30.50
2022-09-01T11:39:55.751Z,30.40
2022-09-01T11:43:19.395Z,30.30
2022-09-01T11:46:43.747Z,30.30
2022-09-01T11:50:17.109Z,30.00
2022-09-01T11:53:39.691Z,30.10
2022-09-01T11:57:38.139Z,30.00
2022-09-01T12:01:32.142Z,30.20
2022-09-01T12:04:56.262Z,29.90
2022-09-01T12:08:23.943Z,29.10
2022-09-01T12:11:46.427Z,29.20
2022-09-01T12:15:22.044Z,29.40
2022-09-01T12:18:51.974Z,29.20
2022-09-01T12:22:18.407Z,29.20
2022-09-01T12:25:40.519Z,29.20
2022-09-01T12:29:02.612Z,29.50
2022-09-01T12:32:24.604Z,29.10
2022-09-01T12:35:47.487Z,29.20
2022-09-01T12:39:22.642Z,29.10
2022-09-01T12:42:51.293Z,29.50
2022-09-01T12:46:14.298Z,29.50
2022-09-01T12:49:50.734Z,29.40
2022-09-01T12:53:17.818Z,29.60
2022-09-01T12:56:39.923Z,30.00
2022-09-01T13:00:21.705Z,30.10
2022-09-01T13:04:04.002Z,29.80
2022-09-01T13:07:26.005Z,29.20
2022-09-01T13:10:54.337Z,29.40
2022-09-01T13:14:16.896Z,29.80
2022-09-01T13:17:38.980Z,30.40
2022-09-01T13:21:01.334Z,30.90
2022-09-01T13:24:28.489Z,30.60
2022-09-01T13:27:54.948Z,30.70
2022-09-01T13:31:34.831Z,30.50
2022-09-01T13:35:03.645Z,29.90
2022-09-01T13:38:26.478Z,29.60
2022-09-01T13:41:49.559Z,28.90
2022-09-01T13:45:13.232Z,28.40
2022-09-01T13:52:18.646Z,28.10
2022-09-01T13:55:42.091Z,27.70
2022-09-01T13:59:04.109Z,27.10
2022-09-01T14:02:26.431Z,26.40
2022-09-01T14:05:49.864Z,23.90
2022-09-01T14:09:17.447Z,22.30
2022-09-01T14:12:41.651Z,21.80
2022-09-01T14:16:10.882Z,21.90
2022-09-01T14:19:33.150Z,21.90
2022-09-01T14:22:55.944Z,21.80
2022-09-01T14:26:18.430Z,21.50
2022-09-01T14:33:02.257Z,21.50
2022-09-01T14:36:26.528Z,21.60
2022-09-01T14:39:56.367Z,21.70
2022-09-01T14:43:18.819Z,21.70
2022-09-01T14:46:45.298Z,21.80
2022-09-01T14:53:32.612Z,22.10
2022-09-01T15:00:42.220Z,22.40
2022-09-01T15:04:04.341Z,22.60
2022-09-01T15:07:26.682Z,22.80
2022-09-01T15:10:49.511Z,23.10
2022-09-01T15:14:18.438Z,23.70
2022-09-01T15:17:44.559Z,24.20
2022-09-01T15:21:09.553Z,24.20
2022-09-01T15:24:31.636Z,24.30
2022-09-01T15:27:55.277Z,24.50
2022-09-01T15:31:32.258Z,24.90
2022-09-01T15:34:58.611Z,25.30
2022-09-01T15:38:21.655Z,25.60
2022-09-01T15:41:49.906Z,25.70
2022-09-01T15:45:18.795Z,25.00
2022-09-01T15:48:42.036Z,24.80
2022-09-01T15:52:04.125Z,24.70
2022-09-01T15:55:41.160Z,24.20
2022-09-01T15:59:05.672Z,23.70
2022-09-01T16:02:27.992Z,23.50
2022-09-01T16:05:50.006Z,23.60
2022-09-01T16:09:13.033Z,23.50
2022-09-01T16:12:35.893Z,23.50
2022-09-01T16:16:15.140Z,23.50
2022-09-01T16:19:49.049Z,23.50
2022-09-01T16:23:18.412Z,23.60
2022-09-01T16:26:44.519Z,23.50
2022-09-01T16:30:16.794Z,23.40
2022-09-01T16:33:39.625Z,23.30
2022-09-01T16:37:21.822Z,23.20
2022-09-01T16:40:56.457Z,23.30
2022-09-01T16:44:28.539Z,23.30
2022-09-01T16:48:14.854Z,23.30
2022-09-01T16:52:12.095Z,23.20
2022-09-01T16:55:51.977Z,23.10
2022-09-01T16:59:39.249Z,22.90
2022-09-01T17:03:18.107Z,22.80
2022-09-01T17:06:58.668Z,22.70
2022-09-01T17:10:29.138Z,22.60
2022-09-01T17:13:52.452Z,22.60
2022-09-01T17:17:20.498Z,22.70
2022-09-01T17:20:55.017Z,22.70
2022-09-01T17:24:42.309Z,22.70
2022-09-01T17:28:21.041Z,22.60
2022-09-01T17:31:53.977Z,22.40
2022-09-01T17:35:25.025Z,22.40
2022-09-01T17:39:09.981Z,22.40
2022-09-01T17:42:42.134Z,22.40
2022-09-01T17:46:28.575Z,22.30
2022-09-01T17:50:09.245Z,22.30
2022-09-01T17:53:57.320Z,22.30
2022-09-01T17:57:25.992Z,22.30
2022-09-01T18:01:18.048Z,22.20
2022-09-01T18:05:32.108Z,22.20
2022-09-01T18:08:58.349Z,22.30
2022-09-01T18:12:30.957Z,22.30
2022-09-01T18:15:58.557Z,22.20
2022-09-01T18:19:26.169Z,22.20
2022-09-01T18:23:04.306Z,22.10
2022-09-01T18:26:35.511Z,22.00
2022-09-01T18:29:58.872Z,21.90
2022-09-01T18:33:26.123Z,21.80
2022-09-01T18:36:59.832Z,21.80
2022-09-01T18:40:32.436Z,21.70
2022-09-01T18:44:26.668Z,21.60
2022-09-01T18:48:00.058Z,21.60
2022-09-01T18:51:49.739Z,21.50
2022-09-01T18:55:43.149Z,21.40
2022-09-01T18:59:14.736Z,21.30
2022-09-01T19:03:02.228Z,21.20
2022-09-01T19:06:32.825Z,21.30
2022-09-01T19:09:58.436Z,21.10
2022-09-01T19:13:45.729Z,21.10
2022-09-01T19:17:20.159Z,21.10
2022-09-01T19:21:03.781Z,21.10
2022-09-01T19:25:25.962Z,21.00
2022-09-01T19:29:10.843Z,20.90
2022-09-01T19:32:37.166Z,20.80
2022-09-01T19:36:06.346Z,20.80
2022-09-01T19:39:33.635Z,20.70
2022-09-01T19:43:11.621Z,20.60
2022-09-01T19:47:02.096Z,20.50
2022-09-01T19:50:38.338Z,20.50
2022-09-01T19:54:23.211Z,20.50
2022-09-01T19:58:00.767Z,20.50
2022-09-01T20:01:59.785Z,20.50
2022-09-01T20:05:38.050Z,20.40
2022-09-01T20:09:21.481Z,20.30
2022-09-01T20:13:03.383Z,20.30
2022-09-01T20:16:51.056Z,20.30
2022-09-01T20:20:17.064Z,20.40
2022-09-01T20:24:00.916Z,20.40
2022-09-01T20:27:50.869Z,20.50
2022-09-01T20:31:38.445Z,20.60
2022-09-01T20:35:08.190Z,20.50
2022-09-01T20:39:05.088Z,20.60
2022-09-01T20:43:04.670Z,20.70
2022-09-01T20:46:26.903Z,20.70
2022-09-01T20:49:49.449Z,20.60
2022-09-01T20:53:14.589Z,20.60
2022-09-01T20:57:06.146Z,20.70
2022-09-01T21:00:30.548Z,20.60
2022-09-01T21:04:30.315Z,20.50
2022-09-01T21:08:52.103Z,20.40
2022-09-01T21:12:52.746Z,20.30
2022-09-01T21:16:29.718Z,20.40
2022-09-01T21:20:22.155Z,20.40
2022-09-01T21:23:44.154Z,20.60
2022-09-01T21:27:11.819Z,20.60
2022-09-01T21:30:35.421Z,20.60
2022-09-01T21:33:57.444Z,20.60
2022-09-01T21:37:22.386Z,20.50
2022-09-01T21:40:44.975Z,20.50
2022-09-01T21:44:07.263Z,20.60
2022-09-01T21:47:29.481Z,20.70
2022-09-01T21:50:51.680Z,20.70
2022-09-01T21:54:13.792Z,20.70
2022-09-01T21:57:36.588Z,20.70
2022-09-01T22:00:58.772Z,20.70
2022-09-01T22:04:21.164Z,20.80
2022-09-01T22:07:45.829Z,20.80
2022-09-01T22:11:10.105Z,20.80
2022-09-01T22:14:32.103Z,20.80
2022-09-01T22:17:56.288Z,20.80
2022-09-01T22:21:19.211Z,20.80
2022-09-01T22:24:41.213Z,20.80
2022-09-01T22:28:05.858Z,20.80
2022-09-01T22:31:29.943Z,20.90
2022-09-01T22:34:52.021Z,21.00
2022-09-01T22:38:15.152Z,21.00
2022-09-01T22:41:40.232Z,21.00
2022-09-01T22:45:03.237Z,21.00
2022-09-01T22:48:27.225Z,21.00
2022-09-01T22:51:49.348Z,21.00
2022-09-01T22:55:11.765Z,21.00
2022-09-01T22:58:33.792Z,21.00
2022-09-01T23:01:55.882Z,21.00
2022-09-01T23:05:18.627Z,21.00
2022-09-01T23:08:41.045Z,21.00
2022-09-01T23:12:03.737Z,20.90
2022-09-01T23:15:25.724Z,20.90
2022-09-01T23:18:48.980Z,20.90
2022-09-01T23:22:11.052Z,20.90
2022-09-01T23:25:33.048Z,20.80
2022-09-01T23:28:58.693Z,20.80
2022-09-01T23:32:20.672Z,20.90
2022-09-01T23:35:49.534Z,20.80
2022-09-01T23:39:11.552Z,20.80
2022-09-01T23:42:33.559Z,20.70
2022-09-01T23:45:56.782Z,20.70
2022-09-01T23:49:19.324Z,20.60
2022-09-01T23:52:41.318Z,20.60
2022-09-01T23:56:08.977Z,20.60
2022-09-01T23:59:31.057Z,20.60
